Iola, Colorado
Current Conditions -  °F | °C
As of 1:15 AM on Monday 24 Nov 2014 (Local Time) from KGUC Reporting Station
Clear Clear  
Wind Chill:   Ceiling: Unl
Heat Index:   Visibility: 10mi
Dew Point:   Wind: 5mph
Humidity: 67%   Direction: 10°N
Pressure: 30.08"   Gusts: NA
Location:  38.5539°N, 107.09°W
Report Text: KGUC 240815Z AUTO 01004KT 10SM CLR M13/M18 A3008 RMK AO1
Loading
Personal Weather Stations






























Interactive Weather Map New forecast layout! Learn more

10-Day Weather Forecast

Advertisements
Track Severe Weather on mobile